sensor_id;sensor_type;location;lat;lon;timestamp;temperature;humidity
79489;SHT31;68949;53.176;18.088;2024-01-27T00:00:46;4.49;83.26
79489;SHT31;68949;53.176;18.088;2024-01-27T00:03:32;4.48;83.36
79489;SHT31;68949;53.176;18.088;2024-01-27T00:05:59;4.47;83.27
79489;SHT31;68949;53.176;18.088;2024-01-27T00:08:25;4.49;83.25
79489;SHT31;68949;53.176;18.088;2024-01-27T00:10:52;4.50;83.29
79489;SHT31;68949;53.176;18.088;2024-01-27T00:13:19;4.49;83.23
79489;SHT31;68949;53.176;18.088;2024-01-27T00:15:45;4.48;83.28
79489;SHT31;68949;53.176;18.088;2024-01-27T00:18:12;4.48;83.26
79489;SHT31;68949;53.176;18.088;2024-01-27T00:20:42;4.48;83.19
79489;SHT31;68949;53.176;18.088;2024-01-27T00:23:08;4.47;83.28
79489;SHT31;68949;53.176;18.088;2024-01-27T00:25:35;4.46;83.41
79489;SHT31;68949;53.176;18.088;2024-01-27T00:28:02;4.44;83.54
79489;SHT31;68949;53.176;18.088;2024-01-27T00:30:29;4.44;83.71
79489;SHT31;68949;53.176;18.088;2024-01-27T00:32:55;4.42;83.82
79489;SHT31;68949;53.176;18.088;2024-01-27T00:35:22;4.40;83.97
79489;SHT31;68949;53.176;18.088;2024-01-27T00:37:48;4.38;84.12
79489;SHT31;68949;53.176;18.088;2024-01-27T00:40:15;4.38;84.25
79489;SHT31;68949;53.176;18.088;2024-01-27T00:42:42;4.34;84.34
79489;SHT31;68949;53.176;18.088;2024-01-27T00:45:08;4.33;84.47
79489;SHT31;68949;53.176;18.088;2024-01-27T00:47:36;4.33;84.59
79489;SHT31;68949;53.176;18.088;2024-01-27T00:50:04;4.31;84.78
79489;SHT31;68949;53.176;18.088;2024-01-27T00:52:32;4.30;84.78
79489;SHT31;68949;53.176;18.088;2024-01-27T00:54:58;4.28;84.95
79489;SHT31;68949;53.176;18.088;2024-01-27T00:57:25;4.28;84.94
79489;SHT31;68949;53.176;18.088;2024-01-27T00:59:52;4.26;85.07
79489;SHT31;68949;53.176;18.088;2024-01-27T01:02:18;4.24;85.18
79489;SHT31;68949;53.176;18.088;2024-01-27T01:04:45;4.23;85.30
79489;SHT31;68949;53.176;18.088;2024-01-27T01:07:12;4.21;85.27
79489;SHT31;68949;53.176;18.088;2024-01-27T01:09:38;4.23;85.20
79489;SHT31;68949;53.176;18.088;2024-01-27T01:12:05;4.21;85.28
79489;SHT31;68949;53.176;18.088;2024-01-27T01:14:32;4.20;85.30
79489;SHT31;68949;53.176;18.088;2024-01-27T01:16:58;4.20;85.33
79489;SHT31;68949;53.176;18.088;2024-01-27T01:19:25;4.20;85.26
79489;SHT31;68949;53.176;18.088;2024-01-27T01:21:53;4.20;85.26
79489;SHT31;68949;53.176;18.088;2024-01-27T01:24:19;4.20;85.09
79489;SHT31;68949;53.176;18.088;2024-01-27T01:26:49;4.21;84.97
79489;SHT31;68949;53.176;18.088;2024-01-27T01:29:16;4.20;85.00
79489;SHT31;68949;53.176;18.088;2024-01-27T01:31:43;4.20;84.91
79489;SHT31;68949;53.176;18.088;2024-01-27T01:34:10;4.19;84.90
79489;SHT31;68949;53.176;18.088;2024-01-27T01:36:39;4.18;84.95
79489;SHT31;68949;53.176;18.088;2024-01-27T01:39:06;4.18;84.91
79489;SHT31;68949;53.176;18.088;2024-01-27T01:41:33;4.17;84.96
79489;SHT31;68949;53.176;18.088;2024-01-27T01:44:00;4.16;84.88
79489;SHT31;68949;53.176;18.088;2024-01-27T01:46:27;4.14;84.81
79489;SHT31;68949;53.176;18.088;2024-01-27T01:48:53;4.14;84.87
79489;SHT31;68949;53.176;18.088;2024-01-27T01:51:21;4.12;84.82
79489;SHT31;68949;53.176;18.088;2024-01-27T01:53:49;4.12;84.71
79489;SHT31;68949;53.176;18.088;2024-01-27T01:56:17;4.12;84.78
79489;SHT31;68949;53.176;18.088;2024-01-27T01:58:44;4.12;84.61
79489;SHT31;68949;53.176;18.088;2024-01-27T02:01:11;4.13;84.51
79489;SHT31;68949;53.176;18.088;2024-01-27T02:03:37;4.16;84.32
79489;SHT31;68949;53.176;18.088;2024-01-27T02:06:04;4.17;84.21
79489;SHT31;68949;53.176;18.088;2024-01-27T02:08:33;4.16;84.19
79489;SHT31;68949;53.176;18.088;2024-01-27T02:10:59;4.16;84.21
79489;SHT31;68949;53.176;18.088;2024-01-27T02:13:28;4.15;84.18
79489;SHT31;68949;53.176;18.088;2024-01-27T02:15:55;4.16;84.14
79489;SHT31;68949;53.176;18.088;2024-01-27T02:18:22;4.18;83.94
79489;SHT31;68949;53.176;18.088;2024-01-27T02:20:50;4.19;83.99
79489;SHT31;68949;53.176;18.088;2024-01-27T02:23:17;4.20;83.96
79489;SHT31;68949;53.176;18.088;2024-01-27T02:25:44;4.20;83.85
79489;SHT31;68949;53.176;18.088;2024-01-27T02:28:10;4.19;83.82
79489;SHT31;68949;53.176;18.088;2024-01-27T02:30:40;4.20;83.70
79489;SHT31;68949;53.176;18.088;2024-01-27T02:33:06;4.19;83.69
79489;SHT31;68949;53.176;18.088;2024-01-27T02:35:33;4.19;83.44
79489;SHT31;68949;53.176;18.088;2024-01-27T02:37:59;4.20;83.34
79489;SHT31;68949;53.176;18.088;2024-01-27T02:40:26;4.20;83.16
79489;SHT31;68949;53.176;18.088;2024-01-27T02:42:54;4.24;82.95
79489;SHT31;68949;53.176;18.088;2024-01-27T02:45:20;4.26;82.89
79489;SHT31;68949;53.176;18.088;2024-01-27T02:47:47;4.26;82.88
79489;SHT31;68949;53.176;18.088;2024-01-27T02:50:14;4.28;82.83
79489;SHT31;68949;53.176;18.088;2024-01-27T02:52:42;4.30;82.86
79489;SHT31;68949;53.176;18.088;2024-01-27T02:55:09;4.31;82.62
79489;SHT31;68949;53.176;18.088;2024-01-27T02:57:36;4.32;82.58
79489;SHT31;68949;53.176;18.088;2024-01-27T03:00:04;4.34;82.56
79489;SHT31;68949;53.176;18.088;2024-01-27T03:02:31;4.34;82.58
79489;SHT31;68949;53.176;18.088;2024-01-27T03:04:58;4.33;82.57
79489;SHT31;68949;53.176;18.088;2024-01-27T03:07:24;4.34;82.37
79489;SHT31;68949;53.176;18.088;2024-01-27T03:09:51;4.32;82.72
79489;SHT31;68949;53.176;18.088;2024-01-27T03:12:18;4.29;82.95
79489;SHT31;68949;53.176;18.088;2024-01-27T03:14:44;4.25;83.04
79489;SHT31;68949;53.176;18.088;2024-01-27T03:17:12;4.23;83.20
79489;SHT31;68949;53.176;18.088;2024-01-27T03:19:39;4.19;83.56
79489;SHT31;68949;53.176;18.088;2024-01-27T03:22:06;4.13;83.70
79489;SHT31;68949;53.176;18.088;2024-01-27T03:24:33;4.09;84.03
79489;SHT31;68949;53.176;18.088;2024-01-27T03:27:00;4.05;84.12
79489;SHT31;68949;53.176;18.088;2024-01-27T03:29:26;4.01;84.28
79489;SHT31;68949;53.176;18.088;2024-01-27T03:31:54;3.96;84.42
79489;SHT31;68949;53.176;18.088;2024-01-27T03:34:21;3.94;84.64
79489;SHT31;68949;53.176;18.088;2024-01-27T03:36:51;3.91;84.74
79489;SHT31;68949;53.176;18.088;2024-01-27T03:39:17;3.88;84.82
79489;SHT31;68949;53.176;18.088;2024-01-27T03:41:44;3.85;85.06
79489;SHT31;68949;53.176;18.088;2024-01-27T03:44:11;3.83;85.21
79489;SHT31;68949;53.176;18.088;2024-01-27T03:46:38;3.80;85.18
79489;SHT31;68949;53.176;18.088;2024-01-27T03:49:05;3.79;85.31
79489;SHT31;68949;53.176;18.088;2024-01-27T03:51:32;3.76;85.47
79489;SHT31;68949;53.176;18.088;2024-01-27T03:53:59;3.73;85.70
79489;SHT31;68949;53.176;18.088;2024-01-27T03:56:25;3.70;85.82
79489;SHT31;68949;53.176;18.088;2024-01-27T03:58:52;3.69;85.90
79489;SHT31;68949;53.176;18.088;2024-01-27T04:01:19;3.68;85.95
79489;SHT31;68949;53.176;18.088;2024-01-27T04:03:45;3.67;86.05
79489;SHT31;68949;53.176;18.088;2024-01-27T04:06:12;3.65;86.24
79489;SHT31;68949;53.176;18.088;2024-01-27T04:08:38;3.65;86.29
79489;SHT31;68949;53.176;18.088;2024-01-27T04:11:06;3.64;86.37
79489;SHT31;68949;53.176;18.088;2024-01-27T04:13:32;3.65;86.39
79489;SHT31;68949;53.176;18.088;2024-01-27T04:15:59;3.64;86.44
79489;SHT31;68949;53.176;18.088;2024-01-27T04:18:27;3.64;86.50
79489;SHT31;68949;53.176;18.088;2024-01-27T04:20:54;3.63;86.56
79489;SHT31;68949;53.176;18.088;2024-01-27T04:23:20;3.62;86.53
79489;SHT31;68949;53.176;18.088;2024-01-27T04:25:47;3.63;86.52
79489;SHT31;68949;53.176;18.088;2024-01-27T04:28:14;3.62;86.60
79489;SHT31;68949;53.176;18.088;2024-01-27T04:30:40;3.61;86.54
79489;SHT31;68949;53.176;18.088;2024-01-27T04:33:07;3.60;86.59
79489;SHT31;68949;53.176;18.088;2024-01-27T04:35:34;3.57;86.63
79489;SHT31;68949;53.176;18.088;2024-01-27T04:38:01;3.53;86.67
79489;SHT31;68949;53.176;18.088;2024-01-27T04:40:28;3.52;86.77
79489;SHT31;68949;53.176;18.088;2024-01-27T04:42:55;3.49;86.82
79489;SHT31;68949;53.176;18.088;2024-01-27T04:45:22;3.49;86.88
79489;SHT31;68949;53.176;18.088;2024-01-27T04:47:48;3.47;86.93
79489;SHT31;68949;53.176;18.088;2024-01-27T04:50:17;3.45;86.92
79489;SHT31;68949;53.176;18.088;2024-01-27T04:52:43;3.43;86.97
79489;SHT31;68949;53.176;18.088;2024-01-27T04:55:10;3.42;87.01
79489;SHT31;68949;53.176;18.088;2024-01-27T04:57:37;3.41;87.08
79489;SHT31;68949;53.176;18.088;2024-01-27T05:00:04;3.41;87.09
79489;SHT31;68949;53.176;18.088;2024-01-27T05:02:36;3.40;87.17
79489;SHT31;68949;53.176;18.088;2024-01-27T05:05:03;3.39;87.27
79489;SHT31;68949;53.176;18.088;2024-01-27T05:07:30;3.39;87.30
79489;SHT31;68949;53.176;18.088;2024-01-27T05:09:57;3.39;87.26
79489;SHT31;68949;53.176;18.088;2024-01-27T05:12:23;3.38;87.30
79489;SHT31;68949;53.176;18.088;2024-01-27T05:14:50;3.37;87.37
79489;SHT31;68949;53.176;18.088;2024-01-27T05:17:17;3.37;87.40
79489;SHT31;68949;53.176;18.088;2024-01-27T05:19:43;3.37;87.47
79489;SHT31;68949;53.176;18.088;2024-01-27T05:22:10;3.38;87.47
79489;SHT31;68949;53.176;18.088;2024-01-27T05:24:37;3.38;87.46
79489;SHT31;68949;53.176;18.088;2024-01-27T05:27:03;3.39;87.49
79489;SHT31;68949;53.176;18.088;2024-01-27T05:29:30;3.39;87.41
79489;SHT31;68949;53.176;18.088;2024-01-27T05:31:57;3.39;87.41
79489;SHT31;68949;53.176;18.088;2024-01-27T05:34:23;3.38;87.48
79489;SHT31;68949;53.176;18.088;2024-01-27T05:36:50;3.37;87.56
79489;SHT31;68949;53.176;18.088;2024-01-27T05:39:17;3.38;87.56
79489;SHT31;68949;53.176;18.088;2024-01-27T05:41:43;3.35;87.60
79489;SHT31;68949;53.176;18.088;2024-01-27T05:44:10;3.34;87.63
79489;SHT31;68949;53.176;18.088;2024-01-27T05:46:37;3.33;87.63
79489;SHT31;68949;53.176;18.088;2024-01-27T05:49:04;3.33;87.66
79489;SHT31;68949;53.176;18.088;2024-01-27T05:51:30;3.32;87.74
79489;SHT31;68949;53.176;18.088;2024-01-27T05:53:57;3.31;87.80
79489;SHT31;68949;53.176;18.088;2024-01-27T05:56:24;3.32;87.81
79489;SHT31;68949;53.176;18.088;2024-01-27T05:58:50;3.30;87.79
79489;SHT31;68949;53.176;18.088;2024-01-27T06:01:18;3.32;87.87
79489;SHT31;68949;53.176;18.088;2024-01-27T06:03:45;3.31;87.83
79489;SHT31;68949;53.176;18.088;2024-01-27T06:06:12;3.31;87.85
79489;SHT31;68949;53.176;18.088;2024-01-27T06:08:39;3.30;87.91
79489;SHT31;68949;53.176;18.088;2024-01-27T06:11:08;3.30;87.88
79489;SHT31;68949;53.176;18.088;2024-01-27T06:13:35;3.30;87.83
79489;SHT31;68949;53.176;18.088;2024-01-27T06:16:07;3.30;87.81
79489;SHT31;68949;53.176;18.088;2024-01-27T06:18:37;3.29;87.82
79489;SHT31;68949;53.176;18.088;2024-01-27T06:21:05;3.28;87.83
79489;SHT31;68949;53.176;18.088;2024-01-27T06:23:32;3.25;87.90
79489;SHT31;68949;53.176;18.088;2024-01-27T06:25:58;3.25;87.89
79489;SHT31;68949;53.176;18.088;2024-01-27T06:28:25;3.24;87.91
79489;SHT31;68949;53.176;18.088;2024-01-27T06:30:52;3.23;87.93
79489;SHT31;68949;53.176;18.088;2024-01-27T06:33:19;3.23;87.90
79489;SHT31;68949;53.176;18.088;2024-01-27T06:35:47;3.20;87.94
79489;SHT31;68949;53.176;18.088;2024-01-27T06:38:14;3.20;87.98
79489;SHT31;68949;53.176;18.088;2024-01-27T06:40:40;3.20;88.07
79489;SHT31;68949;53.176;18.088;2024-01-27T06:43:07;3.19;88.09
79489;SHT31;68949;53.176;18.088;2024-01-27T06:45:35;3.18;88.02
79489;SHT31;68949;53.176;18.088;2024-01-27T06:48:02;3.19;88.02
79489;SHT31;68949;53.176;18.088;2024-01-27T06:50:30;3.20;88.02
79489;SHT31;68949;53.176;18.088;2024-01-27T06:52:57;3.20;88.07
79489;SHT31;68949;53.176;18.088;2024-01-27T06:55:29;3.20;88.02
79489;SHT31;68949;53.176;18.088;2024-01-27T06:57:57;3.21;88.17
79489;SHT31;68949;53.176;18.088;2024-01-27T07:00:25;3.21;88.16
79489;SHT31;68949;53.176;18.088;2024-01-27T07:02:53;3.20;88.14
79489;SHT31;68949;53.176;18.088;2024-01-27T07:05:21;3.22;88.09
79489;SHT31;68949;53.176;18.088;2024-01-27T07:07:48;3.24;88.01
79489;SHT31;68949;53.176;18.088;2024-01-27T07:10:15;3.28;87.96
79489;SHT31;68949;53.176;18.088;2024-01-27T07:12:42;3.30;87.90
79489;SHT31;68949;53.176;18.088;2024-01-27T07:15:08;3.32;87.88
79489;SHT31;68949;53.176;18.088;2024-01-27T07:17:35;3.35;87.71
79489;SHT31;68949;53.176;18.088;2024-01-27T07:20:02;3.37;87.67
79489;SHT31;68949;53.176;18.088;2024-01-27T07:22:29;3.38;87.66
79489;SHT31;68949;53.176;18.088;2024-01-27T07:24:56;3.37;87.65
79489;SHT31;68949;53.176;18.088;2024-01-27T07:27:23;3.36;87.57
79489;SHT31;68949;53.176;18.088;2024-01-27T07:29:50;3.35;87.51
79489;SHT31;68949;53.176;18.088;2024-01-27T07:32:17;3.33;87.55
79489;SHT31;68949;53.176;18.088;2024-01-27T07:34:43;3.31;87.68
79489;SHT31;68949;53.176;18.088;2024-01-27T07:37:10;3.29;87.63
79489;SHT31;68949;53.176;18.088;2024-01-27T07:39:37;3.29;87.61
79489;SHT31;68949;53.176;18.088;2024-01-27T07:42:04;3.27;87.72
79489;SHT31;68949;53.176;18.088;2024-01-27T07:44:30;3.28;87.65
79489;SHT31;68949;53.176;18.088;2024-01-27T07:46:57;3.28;87.64
79489;SHT31;68949;53.176;18.088;2024-01-27T07:49:24;3.27;87.61
79489;SHT31;68949;53.176;18.088;2024-01-27T07:51:50;3.28;87.64
79489;SHT31;68949;53.176;18.088;2024-01-27T07:54:17;3.27;87.53
79489;SHT31;68949;53.176;18.088;2024-01-27T07:56:44;3.25;87.56
79489;SHT31;68949;53.176;18.088;2024-01-27T07:59:10;3.23;87.58
79489;SHT31;68949;53.176;18.088;2024-01-27T08:01:40;3.21;87.59
79489;SHT31;68949;53.176;18.088;2024-01-27T08:04:07;3.20;87.71
79489;SHT31;68949;53.176;18.088;2024-01-27T08:06:45;3.18;87.74
79489;SHT31;68949;53.176;18.088;2024-01-27T08:09:16;3.16;87.67
79489;SHT31;68949;53.176;18.088;2024-01-27T08:11:44;3.13;87.90
79489;SHT31;68949;53.176;18.088;2024-01-27T08:14:12;3.11;87.85
79489;SHT31;68949;53.176;18.088;2024-01-27T08:16:39;3.08;87.89
79489;SHT31;68949;53.176;18.088;2024-01-27T08:19:05;3.06;88.02
79489;SHT31;68949;53.176;18.088;2024-01-27T08:21:32;3.04;88.02
79489;SHT31;68949;53.176;18.088;2024-01-27T08:23:58;3.02;88.09
79489;SHT31;68949;53.176;18.088;2024-01-27T08:26:25;3.01;88.18
79489;SHT31;68949;53.176;18.088;2024-01-27T08:28:52;2.99;88.12
79489;SHT31;68949;53.176;18.088;2024-01-27T08:31:22;3.00;88.14
79489;SHT31;68949;53.176;18.088;2024-01-27T08:33:49;3.00;88.25
79489;SHT31;68949;53.176;18.088;2024-01-27T08:36:16;3.00;88.25
79489;SHT31;68949;53.176;18.088;2024-01-27T08:38:43;3.03;88.30
79489;SHT31;68949;53.176;18.088;2024-01-27T08:41:09;3.07;88.31
79489;SHT31;68949;53.176;18.088;2024-01-27T08:43:36;3.12;88.23
79489;SHT31;68949;53.176;18.088;2024-01-27T08:46:03;3.17;88.16
79489;SHT31;68949;53.176;18.088;2024-01-27T08:48:30;3.23;88.10
79489;SHT31;68949;53.176;18.088;2024-01-27T08:50:56;3.28;88.01
79489;SHT31;68949;53.176;18.088;2024-01-27T08:53:23;3.33;87.83
79489;SHT31;68949;53.176;18.088;2024-01-27T08:55:49;3.40;87.57
79489;SHT31;68949;53.176;18.088;2024-01-27T08:58:16;3.43;87.50
79489;SHT31;68949;53.176;18.088;2024-01-27T09:00:43;3.50;87.29
79489;SHT31;68949;53.176;18.088;2024-01-27T09:03:09;3.53;87.07
79489;SHT31;68949;53.176;18.088;2024-01-27T09:05:36;3.57;86.79
79489;SHT31;68949;53.176;18.088;2024-01-27T09:08:03;3.62;86.31
79489;SHT31;68949;53.176;18.088;2024-01-27T09:10:30;3.67;86.05
79489;SHT31;68949;53.176;18.088;2024-01-27T09:12:58;3.70;85.85
79489;SHT31;68949;53.176;18.088;2024-01-27T09:15:24;3.73;85.88
79489;SHT31;68949;53.176;18.088;2024-01-27T09:17:51;3.75;85.73
79489;SHT31;68949;53.176;18.088;2024-01-27T09:20:19;3.78;85.67
79489;SHT31;68949;53.176;18.088;2024-01-27T09:22:46;3.84;85.71
79489;SHT31;68949;53.176;18.088;2024-01-27T09:25:14;3.87;85.75
79489;SHT31;68949;53.176;18.088;2024-01-27T09:27:40;3.91;85.54
79489;SHT31;68949;53.176;18.088;2024-01-27T09:30:07;3.93;85.20
79489;SHT31;68949;53.176;18.088;2024-01-27T09:32:35;3.95;85.21
79489;SHT31;68949;53.176;18.088;2024-01-27T09:35:02;3.96;85.16
79489;SHT31;68949;53.176;18.088;2024-01-27T09:37:28;3.96;85.23
79489;SHT31;68949;53.176;18.088;2024-01-27T09:39:55;3.96;85.24
79489;SHT31;68949;53.176;18.088;2024-01-27T09:42:22;3.93;85.15
79489;SHT31;68949;53.176;18.088;2024-01-27T09:44:50;3.92;85.16
79489;SHT31;68949;53.176;18.088;2024-01-27T09:47:20;3.90;85.31
79489;SHT31;68949;53.176;18.088;2024-01-27T09:49:47;3.88;85.23
79489;SHT31;68949;53.176;18.088;2024-01-27T09:52:16;3.84;85.44
79489;SHT31;68949;53.176;18.088;2024-01-27T09:54:42;3.80;85.52
79489;SHT31;68949;53.176;18.088;2024-01-27T09:57:09;3.77;85.60
79489;SHT31;68949;53.176;18.088;2024-01-27T09:59:39;3.75;85.59
79489;SHT31;68949;53.176;18.088;2024-01-27T10:02:11;3.75;85.64
79489;SHT31;68949;53.176;18.088;2024-01-27T10:04:41;3.77;85.45
79489;SHT31;68949;53.176;18.088;2024-01-27T10:07:09;3.80;85.36
79489;SHT31;68949;53.176;18.088;2024-01-27T10:09:36;3.82;85.15
79489;SHT31;68949;53.176;18.088;2024-01-27T10:12:04;3.86;84.83
79489;SHT31;68949;53.176;18.088;2024-01-27T10:14:40;3.91;84.47
79489;SHT31;68949;53.176;18.088;2024-01-27T10:17:11;3.94;84.10
79489;SHT31;68949;53.176;18.088;2024-01-27T10:19:38;3.99;83.87
79489;SHT31;68949;53.176;18.088;2024-01-27T10:22:05;4.02;83.61
79489;SHT31;68949;53.176;18.088;2024-01-27T10:24:31;4.06;83.00
79489;SHT31;68949;53.176;18.088;2024-01-27T10:27:02;4.09;82.80
79489;SHT31;68949;53.176;18.088;2024-01-27T10:29:30;4.13;82.49
79489;SHT31;68949;53.176;18.088;2024-01-27T10:32:07;4.16;82.35
79489;SHT31;68949;53.176;18.088;2024-01-27T10:34:35;4.19;82.31
79489;SHT31;68949;53.176;18.088;2024-01-27T10:37:02;4.22;81.84
79489;SHT31;68949;53.176;18.088;2024-01-27T10:39:29;4.26;81.73
79489;SHT31;68949;53.176;18.088;2024-01-27T10:41:56;4.29;81.63
79489;SHT31;68949;53.176;18.088;2024-01-27T10:44:29;4.32;81.69
79489;SHT31;68949;53.176;18.088;2024-01-27T10:46:56;4.34;81.41
79489;SHT31;68949;53.176;18.088;2024-01-27T10:49:26;4.38;81.37
79489;SHT31;68949;53.176;18.088;2024-01-27T10:51:57;4.40;81.28
79489;SHT31;68949;53.176;18.088;2024-01-27T10:54:28;4.41;81.11
79489;SHT31;68949;53.176;18.088;2024-01-27T10:56:57;4.42;80.94
79489;SHT31;68949;53.176;18.088;2024-01-27T10:59:25;4.43;80.82
79489;SHT31;68949;53.176;18.088;2024-01-27T11:01:54;4.45;80.70
79489;SHT31;68949;53.176;18.088;2024-01-27T11:04:23;4.45;80.86
79489;SHT31;68949;53.176;18.088;2024-01-27T11:06:52;4.46;80.77
79489;SHT31;68949;53.176;18.088;2024-01-27T11:09:21;4.48;80.81
79489;SHT31;68949;53.176;18.088;2024-01-27T11:11:48;4.49;81.06
79489;SHT31;68949;53.176;18.088;2024-01-27T11:14:16;4.50;80.77
79489;SHT31;68949;53.176;18.088;2024-01-27T11:16:43;4.52;80.50
79489;SHT31;68949;53.176;18.088;2024-01-27T11:19:13;4.53;80.14
79489;SHT31;68949;53.176;18.088;2024-01-27T11:21:39;4.55;80.13
79489;SHT31;68949;53.176;18.088;2024-01-27T11:24:13;4.56;80.07
79489;SHT31;68949;53.176;18.088;2024-01-27T11:26:42;4.58;79.96
79489;SHT31;68949;53.176;18.088;2024-01-27T11:29:09;4.59;80.23
79489;SHT31;68949;53.176;18.088;2024-01-27T11:31:44;4.60;80.30
79489;SHT31;68949;53.176;18.088;2024-01-27T11:34:12;4.62;80.20
79489;SHT31;68949;53.176;18.088;2024-01-27T11:36:42;4.64;80.39
79489;SHT31;68949;53.176;18.088;2024-01-27T11:42:04;4.69;80.21
79489;SHT31;68949;53.176;18.088;2024-01-27T11:44:35;4.72;80.03
79489;SHT31;68949;53.176;18.088;2024-01-27T11:47:03;4.74;79.86
79489;SHT31;68949;53.176;18.088;2024-01-27T11:49:31;4.76;79.60
79489;SHT31;68949;53.176;18.088;2024-01-27T11:51:59;4.77;79.56
79489;SHT31;68949;53.176;18.088;2024-01-27T11:54:28;4.79;79.70
79489;SHT31;68949;53.176;18.088;2024-01-27T11:56:55;4.80;79.61
79489;SHT31;68949;53.176;18.088;2024-01-27T11:59:21;4.80;79.52
79489;SHT31;68949;53.176;18.088;2024-01-27T12:01:49;4.82;79.52
79489;SHT31;68949;53.176;18.088;2024-01-27T12:04:16;4.84;79.77
79489;SHT31;68949;53.176;18.088;2024-01-27T12:06:44;4.85;79.86
79489;SHT31;68949;53.176;18.088;2024-01-27T12:09:13;4.88;79.26
79489;SHT31;68949;53.176;18.088;2024-01-27T12:11:43;4.92;79.21
79489;SHT31;68949;53.176;18.088;2024-01-27T12:14:09;4.96;79.17
79489;SHT31;68949;53.176;18.088;2024-01-27T12:16:36;5.01;79.43
79489;SHT31;68949;53.176;18.088;2024-01-27T12:19:04;5.04;79.21
79489;SHT31;68949;53.176;18.088;2024-01-27T12:21:31;5.07;79.12
79489;SHT31;68949;53.176;18.088;2024-01-27T12:23:58;5.10;79.29
79489;SHT31;68949;53.176;18.088;2024-01-27T12:26:25;5.12;79.10
79489;SHT31;68949;53.176;18.088;2024-01-27T12:28:56;5.16;79.37
79489;SHT31;68949;53.176;18.088;2024-01-27T12:31:24;5.17;78.90
79489;SHT31;68949;53.176;18.088;2024-01-27T12:33:53;5.20;79.03
79489;SHT31;68949;53.176;18.088;2024-01-27T12:36:22;5.22;79.05
79489;SHT31;68949;53.176;18.088;2024-01-27T12:38:58;5.25;78.61
79489;SHT31;68949;53.176;18.088;2024-01-27T12:41:28;5.26;78.70
79489;SHT31;68949;53.176;18.088;2024-01-27T12:44:00;5.29;78.95
79489;SHT31;68949;53.176;18.088;2024-01-27T12:46:28;5.34;79.00
79489;SHT31;68949;53.176;18.088;2024-01-27T12:48:55;5.38;78.94
79489;SHT31;68949;53.176;18.088;2024-01-27T12:51:22;5.42;78.68
79489;SHT31;68949;53.176;18.088;2024-01-27T12:53:50;5.44;78.43
79489;SHT31;68949;53.176;18.088;2024-01-27T12:56:18;5.46;78.22
79489;SHT31;68949;53.176;18.088;2024-01-27T12:58:44;5.51;78.31
79489;SHT31;68949;53.176;18.088;2024-01-27T13:01:11;5.57;78.15
79489;SHT31;68949;53.176;18.088;2024-01-27T13:03:38;5.61;77.83
79489;SHT31;68949;53.176;18.088;2024-01-27T13:06:05;5.68;77.72
79489;SHT31;68949;53.176;18.088;2024-01-27T13:08:32;5.76;77.30
79489;SHT31;68949;53.176;18.088;2024-01-27T13:11:00;5.79;77.33
79489;SHT31;68949;53.176;18.088;2024-01-27T13:13:27;5.83;77.00
79489;SHT31;68949;53.176;18.088;2024-01-27T13:15:54;5.89;76.47
79489;SHT31;68949;53.176;18.088;2024-01-27T13:18:20;5.94;76.69
79489;SHT31;68949;53.176;18.088;2024-01-27T13:20:47;5.96;75.92
79489;SHT31;68949;53.176;18.088;2024-01-27T13:23:14;6.00;75.81
79489;SHT31;68949;53.176;18.088;2024-01-27T13:25:40;6.02;75.90
79489;SHT31;68949;53.176;18.088;2024-01-27T13:28:07;6.04;75.04
79489;SHT31;68949;53.176;18.088;2024-01-27T13:30:37;6.05;75.56
79489;SHT31;68949;53.176;18.088;2024-01-27T13:33:04;6.05;75.06
79489;SHT31;68949;53.176;18.088;2024-01-27T13:35:31;6.06;75.16
79489;SHT31;68949;53.176;18.088;2024-01-27T13:37:57;6.07;75.01
79489;SHT31;68949;53.176;18.088;2024-01-27T13:40:24;6.09;74.64
79489;SHT31;68949;53.176;18.088;2024-01-27T13:42:51;6.09;74.78
79489;SHT31;68949;53.176;18.088;2024-01-27T13:45:19;6.08;74.68
79489;SHT31;68949;53.176;18.088;2024-01-27T13:47:45;6.07;74.52
79489;SHT31;68949;53.176;18.088;2024-01-27T13:50:12;6.07;74.13
79489;SHT31;68949;53.176;18.088;2024-01-27T13:52:39;6.08;73.97
79489;SHT31;68949;53.176;18.088;2024-01-27T13:55:10;6.08;73.68
79489;SHT31;68949;53.176;18.088;2024-01-27T13:57:38;6.07;73.74
79489;SHT31;68949;53.176;18.088;2024-01-27T14:00:06;6.05;73.65
79489;SHT31;68949;53.176;18.088;2024-01-27T14:02:35;6.02;73.61
79489;SHT31;68949;53.176;18.088;2024-01-27T14:05:02;6.02;73.15
79489;SHT31;68949;53.176;18.088;2024-01-27T14:07:30;6.03;72.80
79489;SHT31;68949;53.176;18.088;2024-01-27T14:09:58;6.02;72.60
79489;SHT31;68949;53.176;18.088;2024-01-27T14:12:26;6.01;72.67
79489;SHT31;68949;53.176;18.088;2024-01-27T14:15:01;5.96;72.40
79489;SHT31;68949;53.176;18.088;2024-01-27T14:17:31;5.94;71.95
79489;SHT31;68949;53.176;18.088;2024-01-27T14:19:58;5.95;71.84
79489;SHT31;68949;53.176;18.088;2024-01-27T14:22:25;5.94;72.03
79489;SHT31;68949;53.176;18.088;2024-01-27T14:24:51;5.89;71.87
79489;SHT31;68949;53.176;18.088;2024-01-27T14:27:18;5.85;71.66
79489;SHT31;68949;53.176;18.088;2024-01-27T14:29:52;5.81;71.70
79489;SHT31;68949;53.176;18.088;2024-01-27T14:32:20;5.79;71.94
79489;SHT31;68949;53.176;18.088;2024-01-27T14:34:48;5.76;71.99
79489;SHT31;68949;53.176;18.088;2024-01-27T14:37:16;5.72;71.79
79489;SHT31;68949;53.176;18.088;2024-01-27T14:39:43;5.68;71.56
79489;SHT31;68949;53.176;18.088;2024-01-27T14:42:12;5.63;71.82
79489;SHT31;68949;53.176;18.088;2024-01-27T14:44:40;5.60;71.63
79489;SHT31;68949;53.176;18.088;2024-01-27T14:47:08;5.61;71.33
79489;SHT31;68949;53.176;18.088;2024-01-27T14:49:35;5.58;71.44
79489;SHT31;68949;53.176;18.088;2024-01-27T14:52:04;5.51;71.79
79489;SHT31;68949;53.176;18.088;2024-01-27T14:54:33;5.46;71.82
79489;SHT31;68949;53.176;18.088;2024-01-27T14:57:04;5.43;72.01
79489;SHT31;68949;53.176;18.088;2024-01-27T14:59:35;5.39;72.17
79489;SHT31;68949;53.176;18.088;2024-01-27T15:02:05;5.35;72.25
79489;SHT31;68949;53.176;18.088;2024-01-27T15:04:33;5.28;72.76
79489;SHT31;68949;53.176;18.088;2024-01-27T15:06:59;5.19;73.23
79489;SHT31;68949;53.176;18.088;2024-01-27T15:09:26;5.16;73.50
79489;SHT31;68949;53.176;18.088;2024-01-27T15:11:53;5.10;73.73
79489;SHT31;68949;53.176;18.088;2024-01-27T15:14:20;5.05;73.99
79489;SHT31;68949;53.176;18.088;2024-01-27T15:16:47;4.97;74.04
79489;SHT31;68949;53.176;18.088;2024-01-27T15:19:13;4.93;74.11
79489;SHT31;68949;53.176;18.088;2024-01-27T15:21:40;4.90;74.00
79489;SHT31;68949;53.176;18.088;2024-01-27T15:24:07;4.86;74.10
79489;SHT31;68949;53.176;18.088;2024-01-27T15:26:34;4.81;74.04
79489;SHT31;68949;53.176;18.088;2024-01-27T15:29:00;4.78;73.84
79489;SHT31;68949;53.176;18.088;2024-01-27T15:31:27;4.80;73.67
79489;SHT31;68949;53.176;18.088;2024-01-27T15:33:54;4.79;73.60